TFM - Tactical Decision Aid (Experimental) INFO Settings

ID: Runway Winds: METAR Board: Map:

Kclt - Charlotte-Douglas Intl

Updated at: 1245 UTC 21 Dec 2014
Latest TAF at: 1121 UTC 21 Dec 2014

TAF Board

Time1152Z21/13Z21/14Z21/15Z21/16Z21/17Z21/18Z21/19Z21/20Z21/21Z21/22Z21/23Z22/00Z22/01Z
TypeOBSPRVLPRVLPRVLPRVLPRVLPRVLPRVLPRVLPRVLPRVLPRVLPRVLPRVL
VIS10>6>6>6>6>6>6>6>6>6>6>6>6>6
CIG2424242440404040404040404040
CoverOVCOVCOVCOVCOVCOVCOVCOVCOVCOVCOVCOVCOVCOVC
FltCatMVFRMVFRMVFRMVFRVFRVFRVFRVFRVFRVFRVFRVFRVFRVFR
WX----------------------------
WDirVRB30303050505050505050505050
WSpd03335555555555
WGst----------------------------
TAF
KCLT 211121Z 2112/2212 03003KT P6SM OVC024
  FM211600 05005KT P6SM SCT026 OVC040
  FM220200 07007KT P6SM OVC050
  FM220400 05008KT P6SM -RA OVC018
  FM220900 04008KT P6SM -RA OVC006


METAR
KCLT 211152Z 00000KT 10SM OVC024 06/01 A3026 RMK AO2 SLP250 70002 T00560011 10056 20056 53005

TAF/METAR Board Legend

Hazard VFR MVFR IFR LIFR
Visibility (sm) >5 3≤X≤5 1≤X<3 <1
Ceiling (100 ft) >30 10≤X≤30 5≤X<10 <5
Wind Speed (kt) <10 10≤X<20 20≤X<30 ≥30
Wind Gust (kt) <15 15≤X<25 25≤X<35 ≥35
Weather No Wx Reported VCTS,-TS,-FZRA TS,FZRA +TS,+FZRA




Page loaded:  12:45 UTC  |   04:45 AM Pacific  |   05:45 AM Mountain  |   06:45 AM Central  |   07:45 AM Eastern

 

ADVISORIES

FORECASTS

FORECASTS

OBSERVATIONS

USER TOOLS

ABOUT US